createdAt,value
2023-01-17T00:00:23.967Z,97896.55
2023-01-17T00:02:54.828Z,97893.42
2023-01-17T00:05:43.164Z,97891.75
2023-01-17T00:08:32.633Z,97889.22
2023-01-17T00:11:03.486Z,97885.37
2023-01-17T00:13:34.171Z,97886.21
2023-01-17T00:16:04.951Z,97884.70
2023-01-17T00:18:35.734Z,97877.58
2023-01-17T00:21:24.958Z,97871.98
2023-01-17T00:24:15.532Z,97867.23
2023-01-17T00:27:00.204Z,97866.40
2023-01-17T00:29:29.762Z,97860.50
2023-01-17T00:31:59.638Z,97856.44
2023-01-17T00:34:29.276Z,97851.55
2023-01-17T00:36:58.952Z,97848.37
2023-01-17T00:39:28.559Z,97836.94
2023-01-17T00:41:58.724Z,97837.56
2023-01-17T00:44:46.862Z,97835.16
2023-01-17T00:47:35.379Z,97824.20
2023-01-17T00:50:24.646Z,97822.46
2023-01-17T00:53:12.726Z,97817.86
2023-01-17T00:56:01.093Z,97812.25
2023-01-17T00:58:49.128Z,97810.84
2023-01-17T01:01:37.353Z,97811.96
2023-01-17T01:04:26.085Z,97808.56
2023-01-17T01:07:14.347Z,97802.73
2023-01-17T01:10:02.860Z,97806.25
2023-01-17T01:12:50.820Z,97794.20
2023-01-17T01:15:39.272Z,97789.26
2023-01-17T01:18:30.855Z,97782.64
2023-01-17T01:21:24.134Z,97780.22
2023-01-17T01:24:12.847Z,97784.08
2023-01-17T01:27:01.698Z,97789.11
2023-01-17T01:29:49.936Z,97779.80
2023-01-17T01:32:38.354Z,97774.36
2023-01-17T01:35:10.483Z,97771.65
2023-01-17T01:37:41.131Z,97770.77
2023-01-17T01:40:13.907Z,97765.51
2023-01-17T01:42:53.817Z,97765.30
2023-01-17T01:45:27.560Z,97753.06
2023-01-17T01:48:03.685Z,97746.45
2023-01-17T01:50:37.743Z,97739.48
2023-01-17T01:53:09.363Z,97735.07
2023-01-17T01:55:45.529Z,97732.17
2023-01-17T01:58:21.889Z,97723.87
2023-01-17T02:00:53.121Z,97722.84
2023-01-17T02:03:29.503Z,97716.96
2023-01-17T02:06:05.542Z,97716.67
2023-01-17T02:08:37.578Z,97714.16
2023-01-17T02:11:08.436Z,97720.35
2023-01-17T02:13:39.625Z,97711.37
2023-01-17T02:16:27.953Z,97708.77
2023-01-17T02:19:11.098Z,97708.34
2023-01-17T02:21:54.395Z,97707.45
2023-01-17T02:24:57.839Z,97706.91
2023-01-17T02:27:36.819Z,97706.39
2023-01-17T02:30:27.346Z,97701.33
2023-01-17T02:33:07.404Z,97694.36
2023-01-17T02:35:48.387Z,97687.37
2023-01-17T02:38:35.027Z,97683.27
2023-01-17T02:41:08.590Z,97687.48
2023-01-17T02:43:40.342Z,97684.45
2023-01-17T02:46:11.046Z,97680.88
2023-01-17T02:48:42.418Z,97690.14
2023-01-17T02:51:37.321Z,97686.48
2023-01-17T02:54:25.273Z,97687.82
2023-01-17T02:57:07.737Z,97687.33
2023-01-17T02:59:47.209Z,97689.48
2023-01-17T03:02:29.847Z,97681.77
2023-01-17T03:05:06.051Z,97677.88
2023-01-17T03:07:37.965Z,97671.63
2023-01-17T03:10:12.834Z,97670.20
2023-01-17T03:12:44.149Z,97669.17
2023-01-17T03:15:17.586Z,97671.20
2023-01-17T03:17:51.860Z,97676.46
2023-01-17T03:20:23.831Z,97677.50
2023-01-17T03:22:54.783Z,97671.66
2023-01-17T03:25:25.611Z,97671.16
2023-01-17T03:27:56.370Z,97668.11
2023-01-17T03:30:27.308Z,97665.11
2023-01-17T03:32:58.507Z,97658.86
2023-01-17T03:35:29.433Z,97657.29
2023-01-17T03:38:00.202Z,97653.81
2023-01-17T03:40:30.935Z,97657.70
2023-01-17T03:43:01.696Z,97656.39
2023-01-17T03:45:32.585Z,97658.75
2023-01-17T03:48:03.558Z,97658.92
2023-01-17T03:50:34.303Z,97655.58
2023-01-17T03:53:05.080Z,97656.62
2023-01-17T03:55:35.871Z,97654.84
2023-01-17T03:58:06.695Z,97654.73
2023-01-17T04:00:38.052Z,97657.81
2023-01-17T04:03:09.244Z,97652.96
2023-01-17T04:05:39.915Z,97650.27
2023-01-17T04:08:10.684Z,97651.58
2023-01-17T04:10:41.417Z,97658.66
2023-01-17T04:13:13.696Z,97657.48
2023-01-17T04:15:46.095Z,97661.91
2023-01-17T04:18:17.704Z,97656.59
2023-01-17T04:20:48.438Z,97655.77
2023-01-17T04:23:19.565Z,97663.67
2023-01-17T04:25:50.234Z,97650.96
2023-01-17T04:28:20.958Z,97658.39
2023-01-17T04:30:51.780Z,97658.11
2023-01-17T04:33:22.455Z,97660.98
2023-01-17T04:35:55.017Z,97662.73
2023-01-17T04:38:26.458Z,97664.77
2023-01-17T04:40:57.141Z,97655.33
2023-01-17T04:43:27.913Z,97660.89
2023-01-17T04:45:59.901Z,97666.32
2023-01-17T04:48:31.571Z,97672.85
2023-01-17T04:51:06.230Z,97678.63
2023-01-17T04:53:37.421Z,97678.10
2023-01-17T04:56:09.369Z,97679.42
2023-01-17T04:58:40.193Z,97679.59
2023-01-17T05:01:11.561Z,97687.00
2023-01-17T05:03:42.409Z,97689.02
2023-01-17T05:06:13.659Z,97690.59
2023-01-17T05:08:44.675Z,97688.70
2023-01-17T05:11:15.701Z,97694.30
2023-01-17T05:13:48.609Z,97689.77
2023-01-17T05:16:21.730Z,97689.63
2023-01-17T05:18:55.324Z,97684.20
2023-01-17T05:21:26.375Z,97686.40
2023-01-17T05:23:57.131Z,97697.58
2023-01-17T05:26:28.008Z,97698.83
2023-01-17T05:28:58.789Z,97696.85
2023-01-17T05:31:29.479Z,97696.57
2023-01-17T05:34:00.150Z,97695.89
2023-01-17T05:36:30.984Z,97701.32
2023-01-17T05:39:01.864Z,97703.89
2023-01-17T05:41:32.660Z,97702.89
2023-01-17T05:44:03.323Z,97692.25
2023-01-17T05:46:34.271Z,97706.80
2023-01-17T05:49:05.579Z,97705.14
2023-01-17T05:51:37.987Z,97702.30
2023-01-17T05:54:09.004Z,97702.83
2023-01-17T05:56:40.049Z,97709.80
2023-01-17T05:59:12.622Z,97710.30
2023-01-17T06:01:44.889Z,97716.70
2023-01-17T06:04:15.585Z,97714.84
2023-01-17T06:06:46.463Z,97711.66
2023-01-17T06:09:17.298Z,97722.17
2023-01-17T06:11:48.016Z,97725.94
2023-01-17T06:14:18.839Z,97719.20
2023-01-17T06:16:49.628Z,97718.90
2023-01-17T06:19:20.367Z,97717.91
2023-01-17T06:21:51.186Z,97720.31
2023-01-17T06:24:21.999Z,97718.99
2023-01-17T06:26:52.791Z,97717.71
2023-01-17T06:29:23.662Z,97707.11
2023-01-17T06:31:54.667Z,97712.40
2023-01-17T06:34:25.992Z,97712.64
2023-01-17T06:36:56.727Z,97712.16
2023-01-17T06:39:27.522Z,97709.37
2023-01-17T06:41:58.606Z,97711.30
2023-01-17T06:44:29.666Z,97715.80
2023-01-17T06:47:00.398Z,97724.30
2023-01-17T06:49:31.131Z,97733.30
2023-01-17T06:52:01.869Z,97737.35
2023-01-17T06:54:32.616Z,97739.04
2023-01-17T06:57:03.337Z,97742.08
2023-01-17T06:59:34.292Z,97748.96
2023-01-17T07:02:04.981Z,97757.16
2023-01-17T07:04:37.175Z,97760.52
2023-01-17T07:07:07.922Z,97759.45
2023-01-17T07:09:38.647Z,97761.73
2023-01-17T07:12:09.910Z,97764.40
2023-01-17T07:14:40.627Z,97767.73
2023-01-17T07:17:11.471Z,97760.93
2023-01-17T07:19:43.225Z,97766.52
2023-01-17T07:22:14.059Z,97764.59
2023-01-17T07:24:44.913Z,97760.99
2023-01-17T07:27:15.675Z,97754.65
2023-01-17T07:29:46.585Z,97750.04
2023-01-17T07:32:17.427Z,97750.98
2023-01-17T07:34:48.358Z,97749.61
2023-01-17T07:37:20.028Z,97745.02
2023-01-17T07:39:50.973Z,97738.63
2023-01-17T07:42:23.927Z,97737.30
2023-01-17T07:44:54.962Z,97726.85
2023-01-17T07:47:26.039Z,97717.13
2023-01-17T07:49:56.860Z,97721.11
2023-01-17T07:52:27.712Z,97731.42
2023-01-17T07:54:58.546Z,97727.83
2023-01-17T07:57:29.276Z,97732.96
2023-01-17T08:00:00.052Z,97736.85
2023-01-17T08:02:31.066Z,97742.69
2023-01-17T08:05:01.785Z,97751.85
2023-01-17T08:07:32.609Z,97761.86
2023-01-17T08:10:03.380Z,97771.21
2023-01-17T08:12:35.644Z,97775.82
2023-01-17T08:15:07.747Z,97779.09
2023-01-17T08:17:38.533Z,97785.44
2023-01-17T08:20:10.529Z,97787.89
2023-01-17T08:22:41.452Z,97782.69
2023-01-17T08:25:13.638Z,97783.67
2023-01-17T08:27:44.581Z,97781.27
2023-01-17T08:30:16.619Z,97779.88
2023-01-17T08:32:47.538Z,97781.56
2023-01-17T08:35:20.195Z,97779.91
2023-01-17T08:37:55.074Z,97774.81
2023-01-17T08:40:26.072Z,97774.77
2023-01-17T08:43:01.927Z,97772.05
2023-01-17T08:45:32.687Z,97773.62
2023-01-17T08:48:03.423Z,97770.27
2023-01-17T08:50:34.174Z,97768.16
2023-01-17T08:53:05.055Z,97761.34
2023-01-17T08:55:39.637Z,97755.61
2023-01-17T08:58:11.440Z,97753.29
2023-01-17T09:00:42.281Z,97753.85
2023-01-17T09:03:14.525Z,97751.48
2023-01-17T09:05:45.461Z,97753.89
2023-01-17T09:08:16.243Z,97759.84
2023-01-17T09:10:46.988Z,97757.80
2023-01-17T09:13:17.622Z,97756.59
2023-01-17T09:15:48.853Z,97757.87
2023-01-17T09:18:19.623Z,97760.11
2023-01-17T09:20:54.918Z,97766.09
2023-01-17T09:23:27.305Z,97766.88
2023-01-17T09:25:59.821Z,97764.74
2023-01-17T09:28:31.319Z,97765.37
2023-01-17T09:31:07.102Z,97769.14
2023-01-17T09:33:38.296Z,97774.80
2023-01-17T09:36:09.989Z,97779.02
2023-01-17T09:38:41.193Z,97785.72
2023-01-17T09:41:28.560Z,97786.67
2023-01-17T09:44:05.530Z,97789.48
2023-01-17T09:46:42.152Z,97789.98
2023-01-17T09:49:24.283Z,97791.58
2023-01-17T09:51:56.244Z,97789.42
2023-01-17T09:54:35.115Z,97794.03
2023-01-17T09:57:19.070Z,97792.41
2023-01-17T10:00:03.300Z,97795.81
2023-01-17T10:02:57.740Z,97796.13
2023-01-17T10:05:51.534Z,97795.73
2023-01-17T10:08:34.058Z,97796.54
2023-01-17T10:11:25.870Z,97804.12
2023-01-17T10:14:07.467Z,97808.79
2023-01-17T10:16:49.210Z,97812.52
2023-01-17T10:19:32.335Z,97817.75
2023-01-17T10:22:31.279Z,97815.64
2023-01-17T10:25:36.557Z,97807.89
2023-01-17T10:28:14.771Z,97812.28
2023-01-17T10:30:50.236Z,97809.09
2023-01-17T10:33:27.420Z,97817.70
2023-01-17T10:36:03.935Z,97816.48
2023-01-17T10:38:37.876Z,97814.52
2023-01-17T10:41:15.958Z,97816.44
2023-01-17T10:43:54.371Z,97823.08
2023-01-17T10:46:31.584Z,97815.55
2023-01-17T10:49:03.766Z,97821.42
2023-01-17T10:52:03.859Z,97822.11
2023-01-17T10:54:51.588Z,97817.03
2023-01-17T10:57:24.497Z,97815.31
2023-01-17T10:59:58.952Z,97814.16
2023-01-17T11:02:34.210Z,97814.98
2023-01-17T11:05:19.443Z,97814.66
2023-01-17T11:08:02.475Z,97813.98
2023-01-17T11:10:43.133Z,97821.13
2023-01-17T11:13:33.255Z,97821.95
2023-01-17T11:16:08.624Z,97823.95
2023-01-17T11:18:41.020Z,97821.56
2023-01-17T11:21:16.761Z,97825.73
2023-01-17T11:23:50.905Z,97826.60
2023-01-17T11:26:27.723Z,97819.89
2023-01-17T11:29:17.209Z,97820.10
2023-01-17T11:31:47.978Z,97818.71
2023-01-17T11:34:24.261Z,97820.85
2023-01-17T11:37:18.111Z,97823.73
2023-01-17T11:39:49.431Z,97827.64
2023-01-17T11:42:36.755Z,97830.55
2023-01-17T11:45:26.852Z,97834.45
2023-01-17T11:48:13.970Z,97837.21
2023-01-17T11:50:48.446Z,97835.76
2023-01-17T11:53:24.795Z,97833.39
2023-01-17T11:56:10.163Z,97834.64
2023-01-17T11:58:43.667Z,97835.96
2023-01-17T12:01:32.323Z,97836.90
2023-01-17T12:04:25.384Z,97844.70
2023-01-17T12:07:09.329Z,97841.16
2023-01-17T12:09:46.572Z,97842.27
2023-01-17T12:12:43.797Z,97843.44
2023-01-17T12:15:27.037Z,97846.02
2023-01-17T12:18:11.809Z,97842.96
2023-01-17T12:20:54.620Z,97846.68
2023-01-17T12:23:44.709Z,97844.14
2023-01-17T12:26:29.811Z,97839.33
2023-01-17T12:29:24.344Z,97841.38
2023-01-17T12:32:09.830Z,97839.17
2023-01-17T12:34:50.961Z,97833.23
2023-01-17T12:37:30.651Z,97833.79
2023-01-17T12:40:11.321Z,97832.77
2023-01-17T12:42:49.969Z,97831.25
2023-01-17T12:45:28.452Z,97839.54
2023-01-17T12:48:03.701Z,97840.61
2023-01-17T12:50:37.197Z,97844.70
2023-01-17T12:53:20.672Z,97844.36
2023-01-17T12:55:58.225Z,97850.14
2023-01-17T12:58:32.765Z,97855.07
2023-01-17T13:01:07.940Z,97855.40
2023-01-17T13:03:42.757Z,97848.84
2023-01-17T13:06:25.033Z,97849.08
2023-01-17T13:08:59.344Z,97855.80
2023-01-17T13:11:35.621Z,97852.35
2023-01-17T13:14:10.034Z,97847.63
2023-01-17T13:16:45.405Z,97855.21
2023-01-17T13:19:18.574Z,97849.02
2023-01-17T13:21:50.741Z,97846.66
2023-01-17T13:24:59.764Z,97846.89
2023-01-17T13:28:05.208Z,97842.64
2023-01-17T13:30:48.458Z,97837.34
2023-01-17T13:33:36.631Z,97836.72
2023-01-17T13:36:29.142Z,97836.67
2023-01-17T13:39:15.224Z,97841.98
2023-01-17T13:41:50.006Z,97849.29
2023-01-17T13:44:21.214Z,97852.70
2023-01-17T13:46:59.052Z,97852.11
2023-01-17T13:49:42.473Z,97849.83
2023-01-17T13:52:27.118Z,97851.11
2023-01-17T13:54:56.744Z,97848.45
2023-01-17T13:57:41.483Z,97854.08
2023-01-17T14:00:51.285Z,97857.86
2023-01-17T14:03:59.621Z,97856.74
2023-01-17T14:06:45.934Z,97861.59
2023-01-17T14:09:22.483Z,97869.49
2023-01-17T14:11:54.990Z,97864.98
2023-01-17T14:14:51.955Z,97868.42
2023-01-17T14:17:51.760Z,97871.88
2023-01-17T14:20:56.869Z,97873.63
2023-01-17T14:24:00.316Z,97879.06
2023-01-17T14:26:43.799Z,97875.56
2023-01-17T14:29:45.826Z,97876.48
2023-01-17T14:32:15.864Z,97884.71
2023-01-17T14:34:45.448Z,97894.41
2023-01-17T14:37:33.086Z,97906.15
2023-01-17T14:40:01.989Z,97907.40
2023-01-17T14:42:31.123Z,97908.10
2023-01-17T14:45:03.460Z,97908.55
2023-01-17T14:47:34.816Z,97921.35
2023-01-17T14:50:20.413Z,97927.86
2023-01-17T14:52:47.460Z,97933.88
2023-01-17T14:55:17.855Z,97940.00
2023-01-17T14:57:55.486Z,97945.88
2023-01-17T15:00:28.452Z,97945.96
2023-01-17T15:02:59.019Z,97942.29
2023-01-17T15:05:29.498Z,97949.14
2023-01-17T15:07:59.113Z,97960.77
2023-01-17T15:10:31.395Z,97970.98
2023-01-17T15:13:09.908Z,97972.94
2023-01-17T15:15:40.238Z,97972.32
2023-01-17T15:18:26.014Z,97967.33
2023-01-17T15:20:58.845Z,97969.79
2023-01-17T15:23:31.691Z,97968.67
2023-01-17T15:26:02.826Z,97965.54
2023-01-17T15:28:32.394Z,97967.14
2023-01-17T15:31:21.439Z,97977.17
2023-01-17T15:33:55.311Z,97982.51
2023-01-17T15:36:29.664Z,97986.64
2023-01-17T15:39:00.082Z,97991.42
2023-01-17T15:41:32.084Z,97998.09
2023-01-17T15:44:00.992Z,98002.23
2023-01-17T15:46:32.215Z,98004.66
2023-01-17T15:49:14.300Z,98011.48
2023-01-17T15:51:49.707Z,98021.71
2023-01-17T15:54:46.784Z,98030.88
2023-01-17T15:57:20.259Z,98042.45
2023-01-17T15:59:53.727Z,98061.95
2023-01-17T16:02:28.485Z,98065.58
2023-01-17T16:04:57.105Z,98068.15
2023-01-17T16:07:31.721Z,98071.06
2023-01-17T16:10:07.156Z,98077.05
2023-01-17T16:12:35.089Z,98077.46
2023-01-17T16:15:12.529Z,98078.88
2023-01-17T16:17:44.887Z,98083.66
2023-01-17T16:20:20.351Z,98080.52
2023-01-17T16:22:49.334Z,98079.55
2023-01-17T16:25:20.051Z,98080.94
2023-01-17T16:27:48.685Z,98082.17
2023-01-17T16:30:19.399Z,98080.17
2023-01-17T16:32:48.955Z,98086.45
2023-01-17T16:35:20.226Z,98089.69
2023-01-17T16:37:50.553Z,98086.17
2023-01-17T16:40:20.421Z,98092.61
2023-01-17T16:42:48.864Z,98098.55
2023-01-17T16:45:18.064Z,98097.23
2023-01-17T16:47:47.877Z,98096.59
2023-01-17T16:50:18.211Z,98096.12
2023-01-17T16:52:46.161Z,98092.42
2023-01-17T16:55:16.621Z,98083.48
2023-01-17T16:57:45.369Z,98082.35
2023-01-17T17:00:15.307Z,98087.12
2023-01-17T17:02:44.126Z,98087.19
2023-01-17T17:05:12.138Z,98084.70
2023-01-17T17:07:43.443Z,98080.66
2023-01-17T17:10:14.043Z,98076.48
2023-01-17T17:12:45.290Z,98081.90
2023-01-17T17:15:13.775Z,98080.74
2023-01-17T17:17:43.595Z,98085.46
2023-01-17T17:20:14.588Z,98086.05
2023-01-17T17:22:44.652Z,98084.08
2023-01-17T17:25:12.875Z,98083.11
2023-01-17T17:27:41.097Z,98081.98
2023-01-17T17:30:12.105Z,98079.16
2023-01-17T17:32:40.428Z,98077.34
2023-01-17T17:35:09.571Z,98084.98
2023-01-17T17:37:37.697Z,98083.15
2023-01-17T17:40:07.933Z,98085.20
2023-01-17T17:42:35.996Z,98085.73
2023-01-17T17:45:05.373Z,98087.14
2023-01-17T17:47:33.483Z,98087.84
2023-01-17T17:50:01.555Z,98085.84
2023-01-17T17:52:29.573Z,98088.54
2023-01-17T17:54:58.614Z,98077.40
2023-01-17T17:57:26.597Z,98074.02
2023-01-17T17:59:56.125Z,98072.54
2023-01-17T18:02:24.995Z,98069.34
2023-01-17T18:04:53.304Z,98069.70
2023-01-17T18:07:21.311Z,98076.46
2023-01-17T18:09:49.284Z,98070.77
2023-01-17T18:12:17.384Z,98073.13
2023-01-17T18:14:45.325Z,98073.17
2023-01-17T18:17:14.689Z,98075.36
2023-01-17T18:19:45.475Z,98074.05
2023-01-17T18:22:14.907Z,98068.16
2023-01-17T18:24:43.175Z,98063.79
2023-01-17T18:27:11.274Z,98067.02
2023-01-17T18:29:39.226Z,98069.73
2023-01-17T18:32:07.237Z,98078.86
2023-01-17T18:34:40.746Z,98084.79
2023-01-17T18:37:09.148Z,98087.70
2023-01-17T18:39:37.150Z,98093.95
2023-01-17T18:42:05.531Z,98092.14
2023-01-17T18:44:33.481Z,98082.04
2023-01-17T18:47:04.095Z,98081.53
2023-01-17T18:49:32.966Z,98084.90
2023-01-17T18:52:01.745Z,98087.11
2023-01-17T18:54:31.259Z,98083.91
2023-01-17T18:56:59.157Z,98088.48
2023-01-17T18:59:27.129Z,98098.59
2023-01-17T19:01:55.285Z,98099.48
2023-01-17T19:04:23.302Z,98103.86
2023-01-17T19:06:53.327Z,98102.90
2023-01-17T19:09:21.756Z,98109.84
2023-01-17T19:11:50.719Z,98109.17
2023-01-17T19:14:18.774Z,98115.92
2023-01-17T19:16:46.779Z,98120.66
2023-01-17T19:19:16.294Z,98120.01
2023-01-17T19:21:44.484Z,98129.13
2023-01-17T19:24:13.639Z,98133.21
2023-01-17T19:26:42.260Z,98142.52
2023-01-17T19:29:11.483Z,98153.35
2023-01-17T19:31:41.911Z,98156.23
2023-01-17T19:34:10.605Z,98162.84
2023-01-17T19:36:38.901Z,98172.48
2023-01-17T19:39:09.228Z,98177.58
2023-01-17T19:41:41.143Z,98185.35
2023-01-17T19:44:11.203Z,98185.70
2023-01-17T19:46:39.880Z,98188.75
2023-01-17T19:49:08.927Z,98187.45
2023-01-17T19:51:38.737Z,98189.33
2023-01-17T19:54:07.637Z,98193.90
2023-01-17T19:56:36.170Z,98194.27
2023-01-17T19:59:04.179Z,98203.38
2023-01-17T20:01:33.691Z,98209.13
2023-01-17T20:04:03.034Z,98212.34
2023-01-17T20:06:33.325Z,98213.56
2023-01-17T20:09:01.641Z,98212.75
2023-01-17T20:11:29.641Z,98212.42
2023-01-17T20:13:59.388Z,98211.91
2023-01-17T20:16:29.613Z,98215.63
2023-01-17T20:18:59.576Z,98217.81
2023-01-17T20:21:29.273Z,98224.56
2023-01-17T20:23:59.563Z,98229.95
2023-01-17T20:26:34.015Z,98229.58
2023-01-17T20:29:03.593Z,98234.80
2023-01-17T20:31:32.107Z,98237.50
2023-01-17T20:34:00.134Z,98234.30
2023-01-17T20:36:29.345Z,98238.33
2023-01-17T20:38:57.334Z,98238.54
2023-01-17T20:41:29.162Z,98242.44
2023-01-17T20:43:59.142Z,98244.31
2023-01-17T20:46:28.955Z,98244.34
2023-01-17T20:48:58.034Z,98234.58
2023-01-17T20:51:28.201Z,98231.41
2023-01-17T20:53:59.055Z,98230.08
2023-01-17T20:56:29.675Z,98226.56
2023-01-17T20:58:58.054Z,98226.27
2023-01-17T21:01:26.369Z,98225.80
2023-01-17T21:03:54.813Z,98229.52
2023-01-17T21:06:24.158Z,98233.25
2023-01-17T21:08:52.295Z,98231.41
2023-01-17T21:11:22.479Z,98230.77
2023-01-17T21:13:51.309Z,98227.56
2023-01-17T21:16:22.231Z,98227.75
2023-01-17T21:18:51.432Z,98229.93
2023-01-17T21:21:21.645Z,98236.16
2023-01-17T21:23:51.081Z,98238.03
2023-01-17T21:26:21.516Z,98239.23
2023-01-17T21:28:50.339Z,98244.45
2023-01-17T21:31:22.709Z,98244.29
2023-01-17T21:33:52.787Z,98244.27
2023-01-17T21:36:22.909Z,98238.23
2023-01-17T21:38:52.578Z,98237.90
2023-01-17T21:41:23.111Z,98238.58
2023-01-17T21:43:55.722Z,98239.24
2023-01-17T21:46:23.932Z,98237.70
2023-01-17T21:48:52.218Z,98230.27
2023-01-17T21:51:21.172Z,98230.75
2023-01-17T21:53:49.285Z,98231.40
2023-01-17T21:56:35.348Z,98234.92
2023-01-17T21:59:03.515Z,98240.82
2023-01-17T22:01:33.437Z,98246.73
2023-01-17T22:04:03.147Z,98247.74
2023-01-17T22:06:34.203Z,98252.29
2023-01-17T22:09:03.550Z,98249.09
2023-01-17T22:11:32.111Z,98247.71
2023-01-17T22:14:02.077Z,98242.33
2023-01-17T22:16:30.008Z,98249.89
2023-01-17T22:19:00.112Z,98245.48
2023-01-17T22:21:29.065Z,98239.58
2023-01-17T22:23:58.660Z,98231.80
2023-01-17T22:26:28.209Z,98227.52
2023-01-17T22:28:59.537Z,98228.31
2023-01-17T22:31:28.377Z,98231.48
2023-01-17T22:33:58.352Z,98231.91
2023-01-17T22:36:27.109Z,98230.36
2023-01-17T22:38:55.361Z,98232.52
2023-01-17T22:41:27.251Z,98231.66
2023-01-17T22:43:58.527Z,98240.39
2023-01-17T22:46:30.553Z,98242.89
2023-01-17T22:48:59.705Z,98236.95
2023-01-17T22:51:28.822Z,98240.30
2023-01-17T22:53:58.691Z,98241.13
2023-01-17T22:56:28.917Z,98242.14
2023-01-17T22:58:57.071Z,98247.03
2023-01-17T23:01:27.200Z,98240.27
2023-01-17T23:03:57.602Z,98240.94
2023-01-17T23:06:27.675Z,98247.83
2023-01-17T23:08:57.632Z,98247.79
2023-01-17T23:11:40.360Z,98244.88
2023-01-17T23:14:10.906Z,98246.71
2023-01-17T23:16:59.607Z,98241.77
2023-01-17T23:19:30.355Z,98238.53
2023-01-17T23:22:18.871Z,98236.81
2023-01-17T23:24:50.073Z,98238.45
2023-01-17T23:27:39.047Z,98236.75
2023-01-17T23:30:10.516Z,98233.04
2023-01-17T23:32:39.025Z,98228.20
2023-01-17T23:35:08.082Z,98224.73
2023-01-17T23:37:54.384Z,98226.80
2023-01-17T23:40:22.369Z,98231.89
2023-01-17T23:43:09.028Z,98229.55
2023-01-17T23:45:38.076Z,98227.20
2023-01-17T23:48:09.774Z,98219.83
2023-01-17T23:50:38.947Z,98223.06
2023-01-17T23:53:07.806Z,98224.95
2023-01-17T23:55:37.780Z,98226.52
2023-01-17T23:58:07.443Z,98226.19
